Glenham, South Dakota
Current Conditions -  °F | °C
As of 12:52 PM on Saturday 20 Dec 2014 (Local Time) from KMBG Reporting Station
Overcast Overcast  
Wind Chill: 20°   Ceiling: 7500
Heat Index: 29°   Visibility: 7mi
Dew Point: 26°   Wind: 10mph
Humidity: 89%   Direction: 140°SE
Pressure: 29.87"   Gusts: NA
Location:  45.53°N, 100.27°W
Report Text: KMBG 201852Z AUTO 14009KT 7SM FEW060 BKN075 OVC090 M02/M03 A2987 RMK AO2 SLP139 T10171033
Loading
Personal Weather Stations






























Interactive Weather Map New forecast layout! Learn more

10-Day Weather Forecast

Advertisements
Track Severe Weather on mobile